createdAt,value
2022-09-11T00:17:56.947Z,37.72
2022-09-11T00:28:21.532Z,32.58
2022-09-11T00:38:43.464Z,31.02
2022-09-11T00:49:16.714Z,30.65
2022-09-11T00:59:41.793Z,29.33
2022-09-11T01:10:05.864Z,25.45
2022-09-11T01:20:47.033Z,28.40
2022-09-11T01:41:40.582Z,23.73
2022-09-11T01:52:07.600Z,23.92
2022-09-11T02:02:49.767Z,21.02
2022-09-11T02:13:18.556Z,19.98
2022-09-11T02:23:40.148Z,20.17
2022-09-11T02:34:01.939Z,23.83
2022-09-11T02:44:50.258Z,20.02
2022-09-11T02:55:30.169Z,19.15
2022-09-11T03:05:51.735Z,14.55
2022-09-11T03:26:35.842Z,13.67
2022-09-11T03:36:57.314Z,14.38
2022-09-11T03:47:20.421Z,14.13
2022-09-11T03:57:42.171Z,13.05
2022-09-11T04:08:04.444Z,14.93
2022-09-11T04:18:26.035Z,11.80
2022-09-11T04:39:09.718Z,16.60
2022-09-11T04:49:31.270Z,15.60
2022-09-11T04:59:53.009Z,15.50
2022-09-11T05:10:14.460Z,17.02
2022-09-11T05:20:35.911Z,18.85
2022-09-11T05:30:59.035Z,22.60
2022-09-11T05:41:21.101Z,32.63
2022-09-11T05:51:42.680Z,62.70
2022-09-11T06:02:04.390Z,148.45
2022-09-11T06:12:27.327Z,141.18
2022-09-11T06:22:48.802Z,91.00
2022-09-11T06:33:10.443Z,45.47
2022-09-11T06:43:33.003Z,22.33
2022-09-11T06:53:58.359Z,56.03
2022-09-11T07:04:20.044Z,20.55
2022-09-11T07:14:41.491Z,20.63
2022-09-11T07:25:07.453Z,23.05
2022-09-11T07:35:29.186Z,20.83
2022-09-11T07:45:53.553Z,26.20
2022-09-11T07:56:20.359Z,24.60
2022-09-11T08:06:42.463Z,27.25
2022-09-11T08:17:03.910Z,25.65
2022-09-11T08:37:46.827Z,24.85
2022-09-11T08:48:11.281Z,25.95
2022-09-11T08:58:51.336Z,26.42
2022-09-11T09:09:25.484Z,16.23
2022-09-11T09:19:56.946Z,14.20
2022-09-11T09:30:27.255Z,10.65
2022-09-11T09:40:59.586Z,9.83
2022-09-11T09:51:21.075Z,10.10
2022-09-11T10:01:48.314Z,13.27
2022-09-11T10:12:16.681Z,15.50
2022-09-11T10:22:38.164Z,11.82
2022-09-11T10:33:03.830Z,7.00
2022-09-11T10:43:40.066Z,3.35
2022-09-11T10:54:16.893Z,2.17
2022-09-11T11:04:38.419Z,5.15
2022-09-11T11:15:27.037Z,2.92
2022-09-11T11:26:06.626Z,1.85
2022-09-11T11:36:39.473Z,1.40
2022-09-11T11:47:05.586Z,0.85
2022-09-11T11:57:33.990Z,1.48
2022-09-11T12:07:55.655Z,1.20
2022-09-11T12:18:24.813Z,0.50
2022-09-11T12:28:47.201Z,1.45
2022-09-11T12:39:18.185Z,0.50
2022-09-11T12:49:40.834Z,0.50
2022-09-11T13:00:11.799Z,0.77
2022-09-11T13:10:36.593Z,0.50
2022-09-11T13:21:26.368Z,0.88
2022-09-11T13:31:48.657Z,2.80
2022-09-11T13:42:17.054Z,1.90
2022-09-11T13:52:40.742Z,3.47
2022-09-11T14:03:02.506Z,2.22
2022-09-11T14:13:33.193Z,1.13
2022-09-11T14:23:58.690Z,0.50
2022-09-11T14:34:27.730Z,0.50
2022-09-11T14:44:49.522Z,0.40
2022-09-11T14:55:16.051Z,0.50
2022-09-11T15:05:38.029Z,0.40
2022-09-11T15:15:59.549Z,0.82
2022-09-11T15:26:21.208Z,0.82
2022-09-11T15:36:43.541Z,0.73
2022-09-11T15:47:05.167Z,0.50
2022-09-11T15:57:28.532Z,0.68
2022-09-11T16:07:50.090Z,0.60
2022-09-11T16:18:12.028Z,0.60
2022-09-11T16:28:36.327Z,1.00
2022-09-11T16:38:57.786Z,0.70
2022-09-11T16:49:19.421Z,1.48
2022-09-11T16:59:40.899Z,1.27
2022-09-11T17:10:03.275Z,2.50
2022-09-11T17:20:24.748Z,0.77
2022-09-11T17:30:46.829Z,0.63
2022-09-11T17:41:09.432Z,0.80
2022-09-11T17:51:30.925Z,0.80
2022-09-11T18:01:52.441Z,3.33
2022-09-11T18:12:14.597Z,1.95
2022-09-11T18:22:39.736Z,1.15
2022-09-11T18:33:01.495Z,5.30
2022-09-11T18:43:23.003Z,1.48
2022-09-11T18:53:47.292Z,1.33
2022-09-11T19:04:11.495Z,2.25
2022-09-11T19:14:33.306Z,1.85
2022-09-11T19:24:54.937Z,1.35
2022-09-11T19:35:17.575Z,4.63
2022-09-11T19:45:39.668Z,1.55
2022-09-11T19:56:01.612Z,1.50
2022-09-11T20:06:25.699Z,7.45
2022-09-11T20:16:47.277Z,3.08
2022-09-11T20:27:08.755Z,3.75
2022-09-11T20:37:30.446Z,4.97
2022-09-11T20:47:53.341Z,2.67
2022-09-11T20:58:14.915Z,4.38
2022-09-11T21:08:36.456Z,3.75
2022-09-11T21:18:59.358Z,4.50
2022-09-11T21:29:20.956Z,4.07
2022-09-11T21:39:42.529Z,9.27
2022-09-11T21:50:07.004Z,4.72
2022-09-11T22:00:28.462Z,4.75
2022-09-11T22:10:50.992Z,5.82
2022-09-11T22:21:12.589Z,6.40
2022-09-11T22:31:34.143Z,8.38
2022-09-11T22:41:55.667Z,37.35
2022-09-11T22:52:17.130Z,14.50
2022-09-11T23:02:38.668Z,7.57
2022-09-11T23:13:00.134Z,6.70
2022-09-11T23:44:05.361Z,6.65
2022-09-11T23:54:26.813Z,7.40
